createdAt,value
2024-01-10T00:02:22.888Z,28.43
2024-01-10T00:04:52.637Z,25.70
2024-01-10T00:07:20.134Z,25.17
2024-01-10T00:09:47.994Z,37.23
2024-01-10T00:12:15.457Z,29.30
2024-01-10T00:14:43.105Z,22.00
2024-01-10T00:17:10.832Z,22.20
2024-01-10T00:19:38.634Z,25.10
2024-01-10T00:22:06.102Z,27.23
2024-01-10T00:24:33.559Z,30.70
2024-01-10T00:27:01.114Z,25.63
2024-01-10T00:29:28.674Z,26.43
2024-01-10T00:32:00.498Z,29.20
2024-01-10T00:34:28.011Z,26.40
2024-01-10T00:36:55.481Z,18.73
2024-01-10T00:39:23.421Z,31.17
2024-01-10T00:41:50.963Z,24.53
2024-01-10T00:44:18.474Z,27.57
2024-01-10T00:46:45.969Z,22.73
2024-01-10T00:49:13.878Z,29.77
2024-01-10T00:51:41.492Z,22.30
2024-01-10T00:54:08.985Z,31.07
2024-01-10T00:56:36.425Z,24.37
2024-01-10T00:59:04.066Z,24.00
2024-01-10T01:01:31.582Z,25.07
2024-01-10T01:03:59.053Z,21.77
2024-01-10T01:06:26.506Z,30.23
2024-01-10T01:08:54.000Z,22.03
2024-01-10T01:11:21.603Z,26.93
2024-01-10T01:13:49.137Z,30.37
2024-01-10T01:16:16.814Z,26.10
2024-01-10T01:18:46.535Z,29.33
2024-01-10T01:21:14.093Z,30.07
2024-01-10T01:23:42.820Z,28.97
2024-01-10T01:26:10.877Z,26.90
2024-01-10T01:28:38.626Z,23.90
2024-01-10T01:31:06.138Z,33.07
2024-01-10T01:33:33.740Z,24.10
2024-01-10T01:36:01.547Z,24.90
2024-01-10T01:38:29.074Z,35.97
2024-01-10T01:40:56.598Z,30.87
2024-01-10T01:43:25.326Z,25.77
2024-01-10T01:45:54.859Z,20.90
2024-01-10T01:48:23.194Z,24.30
2024-01-10T01:50:52.408Z,28.60
2024-01-10T01:53:20.755Z,25.00
2024-01-10T01:55:48.688Z,29.33
2024-01-10T01:58:16.186Z,26.33
2024-01-10T02:00:44.879Z,27.50
2024-01-10T02:03:12.599Z,19.40
2024-01-10T02:05:40.228Z,23.43
2024-01-10T02:08:07.902Z,27.10
2024-01-10T02:10:36.138Z,27.07
2024-01-10T02:13:03.706Z,31.10
2024-01-10T02:15:31.320Z,22.10
2024-01-10T02:17:59.350Z,33.87
2024-01-10T02:20:26.977Z,34.97
2024-01-10T02:22:54.883Z,30.53
2024-01-10T02:25:22.775Z,32.67
2024-01-10T02:27:50.269Z,34.00
2024-01-10T02:30:17.771Z,31.07
2024-01-10T02:32:45.546Z,25.33
2024-01-10T02:35:13.138Z,33.37
2024-01-10T02:37:40.925Z,31.03
2024-01-10T02:40:08.798Z,33.57
2024-01-10T02:42:36.728Z,29.03
2024-01-10T02:45:04.438Z,33.53
2024-01-10T02:47:31.978Z,35.87
2024-01-10T02:49:59.482Z,30.17
2024-01-10T02:52:27.049Z,36.73
2024-01-10T02:54:54.623Z,23.33
2024-01-10T02:57:22.117Z,38.97
2024-01-10T02:59:49.795Z,36.17
2024-01-10T03:02:17.397Z,27.40
2024-01-10T03:04:45.795Z,31.13
2024-01-10T03:07:13.377Z,32.73
2024-01-10T03:09:40.833Z,29.90
2024-01-10T03:12:08.437Z,22.17
2024-01-10T03:14:35.913Z,27.60
2024-01-10T03:17:03.718Z,33.17
2024-01-10T03:19:31.193Z,36.23
2024-01-10T03:21:58.797Z,24.30
2024-01-10T03:24:28.416Z,26.33
2024-01-10T03:26:55.973Z,39.60
2024-01-10T03:29:23.654Z,26.73
2024-01-10T03:31:51.140Z,35.30
2024-01-10T03:34:19.251Z,30.87
2024-01-10T03:36:46.992Z,25.00
2024-01-10T03:39:14.457Z,22.33
2024-01-10T03:41:42.147Z,25.30
2024-01-10T03:44:09.844Z,29.57
2024-01-10T03:46:37.536Z,30.23
2024-01-10T03:49:05.136Z,34.90
2024-01-10T03:51:32.653Z,34.27
2024-01-10T03:54:00.246Z,27.93
2024-01-10T03:56:27.789Z,38.23
2024-01-10T03:58:55.348Z,31.17
2024-01-10T04:01:25.949Z,34.60
2024-01-10T04:03:53.478Z,39.13
2024-01-10T04:06:21.474Z,33.83
2024-01-10T04:08:49.117Z,32.93
2024-01-10T04:11:16.672Z,32.33
2024-01-10T04:13:45.819Z,25.30
2024-01-10T04:16:14.171Z,34.40
2024-01-10T04:18:41.935Z,43.03
2024-01-10T04:21:09.953Z,30.30
2024-01-10T04:23:37.613Z,38.63
2024-01-10T04:26:05.416Z,26.13
2024-01-10T04:28:32.935Z,30.77
2024-01-10T04:31:00.632Z,27.50
2024-01-10T04:33:28.256Z,35.50
2024-01-10T04:35:55.757Z,31.43
2024-01-10T04:38:27.272Z,38.57
2024-01-10T04:40:55.143Z,34.37
2024-01-10T04:43:22.565Z,30.73
2024-01-10T04:45:49.992Z,25.90
2024-01-10T04:48:17.532Z,27.40
2024-01-10T04:50:45.034Z,39.87
2024-01-10T04:53:12.862Z,36.27
2024-01-10T04:55:40.354Z,43.97
2024-01-10T04:58:07.919Z,28.30
2024-01-10T05:00:35.449Z,31.27
2024-01-10T05:03:03.008Z,48.43
2024-01-10T05:05:30.621Z,39.70
2024-01-10T05:07:58.874Z,39.47
2024-01-10T05:10:26.368Z,34.80
2024-01-10T05:12:54.181Z,36.40
2024-01-10T05:15:21.969Z,29.27
2024-01-10T05:17:51.229Z,35.43
2024-01-10T05:20:19.529Z,32.80
2024-01-10T05:22:48.736Z,34.67
2024-01-10T05:25:19.511Z,29.57
2024-01-10T05:27:47.527Z,36.50
2024-01-10T05:30:15.234Z,25.93
2024-01-10T05:32:43.219Z,41.23
2024-01-10T05:35:11.572Z,36.77
2024-01-10T05:37:39.138Z,37.43
2024-01-10T05:40:07.376Z,36.13
2024-01-10T05:42:34.931Z,46.60
2024-01-10T05:45:03.413Z,37.33
2024-01-10T05:47:31.278Z,46.67
2024-01-10T05:49:58.832Z,42.03
2024-01-10T05:52:26.623Z,72.60
2024-01-10T05:54:55.045Z,47.93
2024-01-10T05:57:22.590Z,46.43
2024-01-10T05:59:50.526Z,55.83
2024-01-10T06:02:18.301Z,40.73
2024-01-10T06:04:46.137Z,37.13
2024-01-10T06:07:13.587Z,46.93
2024-01-10T06:09:41.129Z,44.33
2024-01-10T06:12:08.708Z,31.00
2024-01-10T06:14:36.255Z,38.87
2024-01-10T06:17:05.019Z,38.00
2024-01-10T06:19:32.571Z,38.07
2024-01-10T06:22:00.592Z,38.23
2024-01-10T06:24:28.641Z,43.33
2024-01-10T06:26:56.494Z,36.93
2024-01-10T06:29:24.627Z,30.37
2024-01-10T06:31:52.171Z,40.43
2024-01-10T06:34:19.684Z,42.70
2024-01-10T06:36:47.208Z,34.50
2024-01-10T06:39:14.829Z,47.33
2024-01-10T06:41:43.759Z,36.73
2024-01-10T06:44:12.756Z,37.70
2024-01-10T06:46:40.954Z,40.97
2024-01-10T06:49:08.495Z,38.20
2024-01-10T06:51:36.030Z,38.53
2024-01-10T06:54:04.830Z,40.50
2024-01-10T06:56:33.308Z,38.63
2024-01-10T06:59:01.960Z,46.60
2024-01-10T07:01:29.558Z,44.83
2024-01-10T07:03:57.117Z,38.70
2024-01-10T07:06:25.208Z,45.23
2024-01-10T07:08:53.379Z,43.83
2024-01-10T07:11:21.313Z,37.40
2024-01-10T07:13:49.081Z,48.37
2024-01-10T07:16:17.320Z,48.83
2024-01-10T07:18:46.778Z,38.63
2024-01-10T07:21:14.409Z,39.90
2024-01-10T07:23:44.180Z,50.70
2024-01-10T07:26:11.740Z,44.43
2024-01-10T07:28:39.612Z,48.70
2024-01-10T07:31:07.484Z,44.63
2024-01-10T07:33:35.085Z,41.53
2024-01-10T07:36:03.380Z,47.47
2024-01-10T07:38:30.914Z,50.27
2024-01-10T07:41:00.390Z,36.20
2024-01-10T07:43:28.444Z,47.30
2024-01-10T07:45:55.890Z,56.83
2024-01-10T07:48:23.674Z,44.77
2024-01-10T07:50:51.518Z,56.30
2024-01-10T07:53:19.021Z,45.23
2024-01-10T07:55:46.684Z,48.60
2024-01-10T07:58:14.170Z,54.77
2024-01-10T08:00:42.415Z,47.90
2024-01-10T08:03:11.393Z,57.13
2024-01-10T08:05:38.929Z,45.37
2024-01-10T08:08:06.731Z,56.63
2024-01-10T08:10:36.201Z,45.10
2024-01-10T08:13:04.518Z,59.73
2024-01-10T08:15:36.101Z,51.27
2024-01-10T08:18:08.869Z,51.17
2024-01-10T08:20:36.784Z,59.20
2024-01-10T08:23:05.257Z,40.60
2024-01-10T08:25:33.981Z,45.63
2024-01-10T08:28:02.090Z,50.30
2024-01-10T08:30:29.734Z,43.37
2024-01-10T08:32:57.524Z,45.67
2024-01-10T08:35:28.844Z,44.30
2024-01-10T08:37:56.717Z,45.53
2024-01-10T08:40:26.584Z,53.17
2024-01-10T08:42:54.567Z,53.83
2024-01-10T08:45:22.036Z,50.23
2024-01-10T08:47:49.535Z,49.07
2024-01-10T08:50:17.653Z,47.10
2024-01-10T08:52:45.428Z,58.47
2024-01-10T08:55:14.326Z,58.97
2024-01-10T08:57:42.264Z,49.87
2024-01-10T09:00:13.068Z,55.43
2024-01-10T09:02:40.848Z,54.53
2024-01-10T09:05:10.957Z,55.10
2024-01-10T09:07:39.214Z,52.67
2024-01-10T09:10:08.720Z,51.33
2024-01-10T09:12:36.653Z,52.30
2024-01-10T09:15:04.302Z,45.27
2024-01-10T09:17:32.220Z,41.87
2024-01-10T09:19:59.960Z,50.87
2024-01-10T09:22:27.503Z,56.90
2024-01-10T09:24:55.527Z,48.53
2024-01-10T09:27:23.957Z,54.17
2024-01-10T09:29:51.873Z,41.97
2024-01-10T09:32:20.093Z,47.93
2024-01-10T09:34:47.847Z,34.07
2024-01-10T09:37:15.628Z,39.77
2024-01-10T09:39:43.656Z,53.97
2024-01-10T09:42:11.214Z,53.07
2024-01-10T09:44:38.829Z,49.03
2024-01-10T09:47:06.392Z,53.20
2024-01-10T09:49:35.010Z,47.67
2024-01-10T09:52:05.720Z,51.87
2024-01-10T09:54:33.486Z,43.97
2024-01-10T09:57:01.234Z,47.40
2024-01-10T09:59:28.836Z,62.07
2024-01-10T10:01:58.034Z,61.03
2024-01-10T10:04:28.521Z,53.97
2024-01-10T10:07:03.089Z,63.23
2024-01-10T10:09:31.381Z,42.23
2024-01-10T10:11:59.135Z,47.30
2024-01-10T10:14:30.004Z,46.87
2024-01-10T10:16:57.770Z,58.27
2024-01-10T10:19:34.378Z,56.07
2024-01-10T10:22:11.715Z,47.93
2024-01-10T10:24:40.789Z,49.77
2024-01-10T10:27:12.800Z,47.93
2024-01-10T10:29:40.915Z,49.27
2024-01-10T10:32:10.100Z,53.80
2024-01-10T10:34:37.760Z,51.23
2024-01-10T10:37:05.687Z,53.10
2024-01-10T10:39:33.215Z,52.50
2024-01-10T10:42:02.498Z,50.67
2024-01-10T10:44:31.135Z,62.20
2024-01-10T10:47:11.583Z,47.30
2024-01-10T10:49:47.280Z,51.90
2024-01-10T10:52:15.296Z,46.27
2024-01-10T10:54:43.329Z,54.30
2024-01-10T10:57:11.336Z,61.90
2024-01-10T10:59:39.608Z,49.23
2024-01-10T11:02:10.637Z,54.13
2024-01-10T11:04:38.781Z,59.60
2024-01-10T11:07:07.055Z,58.17
2024-01-10T11:09:34.975Z,62.70
2024-01-10T11:12:18.917Z,56.47
2024-01-10T11:15:04.965Z,56.80
2024-01-10T11:17:52.020Z,48.57
2024-01-10T11:20:38.202Z,56.60
2024-01-10T11:23:26.206Z,56.87
2024-01-10T11:25:53.838Z,58.37
2024-01-10T11:28:21.824Z,50.43
2024-01-10T11:30:58.230Z,63.53
2024-01-10T11:33:35.927Z,47.97
2024-01-10T11:36:18.989Z,57.20
2024-01-10T11:38:50.271Z,60.53
2024-01-10T11:41:22.848Z,63.87
2024-01-10T11:44:20.402Z,57.00
2024-01-10T11:46:52.154Z,55.03
2024-01-10T11:49:20.395Z,57.40
2024-01-10T11:51:53.300Z,69.90
2024-01-10T11:54:40.519Z,65.73
2024-01-10T11:57:25.457Z,54.07
2024-01-10T11:59:53.959Z,61.93
2024-01-10T12:02:22.068Z,65.83
2024-01-10T12:04:50.144Z,59.03
2024-01-10T12:07:19.105Z,59.03
2024-01-10T12:09:47.630Z,69.00
2024-01-10T12:12:15.354Z,61.10
2024-01-10T12:14:45.272Z,68.47
2024-01-10T12:17:12.813Z,68.90
2024-01-10T12:19:40.392Z,63.67
2024-01-10T12:22:10.660Z,63.33
2024-01-10T12:24:46.714Z,68.90
2024-01-10T12:27:14.391Z,64.83
2024-01-10T12:29:42.064Z,66.77
2024-01-10T12:32:10.830Z,66.43
2024-01-10T12:34:40.271Z,60.30
2024-01-10T12:37:08.217Z,63.10
2024-01-10T12:39:36.402Z,64.93
2024-01-10T12:42:06.549Z,66.67
2024-01-10T12:44:36.429Z,59.20
2024-01-10T12:47:06.795Z,64.80
2024-01-10T12:49:34.989Z,71.00
2024-01-10T12:52:05.844Z,72.17
2024-01-10T12:54:35.303Z,64.80
2024-01-10T12:57:02.830Z,70.07
2024-01-10T12:59:30.452Z,63.30
2024-01-10T13:01:58.317Z,45.90
2024-01-10T13:04:26.113Z,73.03
2024-01-10T13:06:54.302Z,72.53
2024-01-10T13:09:21.919Z,60.17
2024-01-10T13:11:49.468Z,73.83
2024-01-10T13:14:17.980Z,78.67
2024-01-10T13:16:53.616Z,64.87
2024-01-10T13:19:25.070Z,64.47
2024-01-10T13:21:54.474Z,57.17
2024-01-10T13:24:23.419Z,57.20
2024-01-10T13:26:51.129Z,64.83
2024-01-10T13:29:18.814Z,54.87
2024-01-10T13:31:50.803Z,64.67
2024-01-10T13:34:18.869Z,64.93
2024-01-10T13:36:47.171Z,72.30
2024-01-10T13:39:16.715Z,70.20
2024-01-10T13:41:45.175Z,69.43
2024-01-10T13:44:12.783Z,54.57
2024-01-10T13:46:43.960Z,63.67
2024-01-10T13:49:12.872Z,67.90
2024-01-10T13:51:41.915Z,67.67
2024-01-10T13:54:10.130Z,64.47
2024-01-10T13:56:40.657Z,62.57
2024-01-10T13:59:08.425Z,67.90
2024-01-10T14:01:35.940Z,69.10
2024-01-10T14:04:03.675Z,66.97
2024-01-10T14:06:31.409Z,65.20
2024-01-10T14:08:59.813Z,77.53
2024-01-10T14:11:28.761Z,69.07
2024-01-10T14:13:56.372Z,89.37
2024-01-10T14:16:23.955Z,70.63
2024-01-10T14:18:51.721Z,81.80
2024-01-10T14:21:20.885Z,61.47
2024-01-10T14:23:48.839Z,64.13
2024-01-10T14:26:17.935Z,68.53
2024-01-10T14:28:45.603Z,62.07
2024-01-10T14:31:22.881Z,76.83
2024-01-10T14:33:58.467Z,71.43
2024-01-10T14:36:26.455Z,70.77
2024-01-10T14:38:56.420Z,71.40
2024-01-10T14:41:24.255Z,61.67
2024-01-10T14:43:52.285Z,63.70
2024-01-10T14:46:19.942Z,71.83
2024-01-10T14:48:48.365Z,74.33
2024-01-10T14:51:16.421Z,79.60
2024-01-10T14:53:45.353Z,66.87
2024-01-10T14:56:13.014Z,72.83
2024-01-10T14:58:43.742Z,72.87
2024-01-10T15:01:11.886Z,74.53
2024-01-10T15:03:39.374Z,68.93
2024-01-10T15:06:07.637Z,69.53
2024-01-10T15:08:35.383Z,72.10
2024-01-10T15:11:07.372Z,72.80
2024-01-10T15:13:43.901Z,64.27
2024-01-10T15:16:11.628Z,81.53
2024-01-10T15:18:39.365Z,70.03
2024-01-10T15:21:07.679Z,69.80
2024-01-10T15:23:35.248Z,62.53
2024-01-10T15:26:02.913Z,70.33
2024-01-10T15:28:31.083Z,68.93
2024-01-10T15:30:58.688Z,90.57
2024-01-10T15:33:26.573Z,64.33
2024-01-10T15:35:55.882Z,79.60
2024-01-10T15:38:23.721Z,66.27
2024-01-10T15:40:51.351Z,79.10
2024-01-10T15:43:18.902Z,80.33
2024-01-10T15:45:46.380Z,88.37
2024-01-10T15:48:13.946Z,86.60
2024-01-10T15:50:41.633Z,66.10
2024-01-10T15:53:09.114Z,76.67
2024-01-10T15:55:37.884Z,78.77
2024-01-10T15:58:09.292Z,79.20
2024-01-10T16:00:36.877Z,74.50
2024-01-10T16:03:05.124Z,74.27
2024-01-10T16:05:32.991Z,89.17
2024-01-10T16:08:01.069Z,68.63
2024-01-10T16:10:30.030Z,75.30
2024-01-10T16:12:58.003Z,80.43
2024-01-10T16:15:25.627Z,73.47
2024-01-10T16:17:53.315Z,76.23
2024-01-10T16:20:20.833Z,78.27
2024-01-10T16:22:48.413Z,79.53
2024-01-10T16:25:16.091Z,81.87
2024-01-10T16:27:43.656Z,75.27
2024-01-10T16:30:12.829Z,83.70
2024-01-10T16:32:42.063Z,82.07
2024-01-10T16:35:10.316Z,81.93
2024-01-10T16:37:38.053Z,81.77
2024-01-10T16:40:05.684Z,75.47
2024-01-10T16:42:35.874Z,79.67
2024-01-10T16:45:03.583Z,71.00
2024-01-10T16:47:32.173Z,82.40
2024-01-10T16:50:00.334Z,75.20
2024-01-10T16:52:28.234Z,81.07
2024-01-10T16:54:55.795Z,70.63
2024-01-10T16:57:23.297Z,78.30
2024-01-10T16:59:50.988Z,80.40
2024-01-10T17:02:18.647Z,72.70
2024-01-10T17:04:46.574Z,74.30
2024-01-10T17:07:14.605Z,70.20
2024-01-10T17:09:43.532Z,74.23
2024-01-10T17:12:11.471Z,89.23
2024-01-10T17:14:39.138Z,74.47
2024-01-10T17:17:07.148Z,99.87
2024-01-10T17:19:34.891Z,82.47
2024-01-10T17:22:02.442Z,92.97
2024-01-10T17:24:30.312Z,78.77
2024-01-10T17:26:57.969Z,82.50
2024-01-10T17:29:25.646Z,84.40
2024-01-10T17:31:53.293Z,79.83
2024-01-10T17:34:21.205Z,77.70
2024-01-10T17:36:48.687Z,78.97
2024-01-10T17:39:16.164Z,70.90
2024-01-10T17:41:44.043Z,77.67
2024-01-10T17:44:11.846Z,76.13
2024-01-10T17:46:39.379Z,82.53
2024-01-10T17:49:06.964Z,99.10
2024-01-10T17:51:34.492Z,78.60
2024-01-10T17:54:02.136Z,86.77
2024-01-10T17:56:29.694Z,81.90
2024-01-10T17:58:57.338Z,80.97
2024-01-10T18:01:24.894Z,73.93
2024-01-10T18:04:02.827Z,89.07
2024-01-10T18:06:34.932Z,78.87
2024-01-10T18:09:02.547Z,72.20
2024-01-10T18:11:30.547Z,81.03
2024-01-10T18:13:59.123Z,81.37
2024-01-10T18:16:26.743Z,75.90
2024-01-10T18:18:54.253Z,82.43
2024-01-10T18:21:21.905Z,77.27
2024-01-10T18:23:49.372Z,84.10
2024-01-10T18:26:17.374Z,82.03
2024-01-10T18:28:45.096Z,78.97
2024-01-10T18:31:12.527Z,84.70
2024-01-10T18:33:40.224Z,75.57
2024-01-10T18:36:08.266Z,86.13
2024-01-10T18:38:36.089Z,87.33
2024-01-10T18:41:03.883Z,108.47
2024-01-10T18:43:31.449Z,102.90
2024-01-10T18:45:58.980Z,84.43
2024-01-10T18:48:26.739Z,92.13
2024-01-10T18:50:54.281Z,91.63
2024-01-10T18:53:21.864Z,85.13
2024-01-10T18:55:49.433Z,84.67
2024-01-10T18:58:17.123Z,76.73
2024-01-10T19:00:45.071Z,83.53
2024-01-10T19:03:12.761Z,96.77
2024-01-10T19:05:44.973Z,99.40
2024-01-10T19:08:12.920Z,91.83
2024-01-10T19:10:40.814Z,97.23
2024-01-10T19:13:08.505Z,85.13
2024-01-10T19:15:36.213Z,84.23
2024-01-10T19:18:04.073Z,91.97
2024-01-10T19:20:32.114Z,77.47
2024-01-10T19:23:01.946Z,99.20
2024-01-10T19:25:31.027Z,70.33
2024-01-10T19:27:58.654Z,104.53
2024-01-10T19:30:26.246Z,102.57
2024-01-10T19:32:53.815Z,101.20
2024-01-10T19:35:21.427Z,91.40
2024-01-10T19:37:49.102Z,102.33
2024-01-10T19:40:16.741Z,99.10
2024-01-10T19:42:44.386Z,101.43
2024-01-10T19:45:11.828Z,88.97
2024-01-10T19:47:39.395Z,90.53
2024-01-10T19:50:08.724Z,92.83
2024-01-10T19:52:36.480Z,101.23
2024-01-10T19:55:04.244Z,90.23
2024-01-10T19:57:31.915Z,73.17
2024-01-10T19:59:59.700Z,74.80
2024-01-10T20:02:27.269Z,100.70
2024-01-10T20:04:54.885Z,81.97
2024-01-10T20:07:23.196Z,81.67
2024-01-10T20:09:51.344Z,85.97
2024-01-10T20:12:18.880Z,78.67
2024-01-10T20:14:46.367Z,78.37
2024-01-10T20:17:14.023Z,95.67
2024-01-10T20:19:41.691Z,78.23
2024-01-10T20:22:09.318Z,97.53
2024-01-10T20:24:37.312Z,95.07
2024-01-10T20:27:05.623Z,95.13
2024-01-10T20:29:33.053Z,84.97
2024-01-10T20:32:00.853Z,111.03
2024-01-10T20:34:28.594Z,92.90
2024-01-10T20:36:56.262Z,99.13
2024-01-10T20:39:23.969Z,106.33
2024-01-10T20:41:51.734Z,104.03
2024-01-10T20:44:19.522Z,96.33
2024-01-10T20:46:47.126Z,88.93
2024-01-10T20:49:17.734Z,93.73
2024-01-10T20:51:45.319Z,97.53
2024-01-10T20:54:13.262Z,95.43
2024-01-10T20:56:41.379Z,89.27
2024-01-10T20:59:09.113Z,85.70
2024-01-10T21:01:36.750Z,91.60
2024-01-10T21:04:04.689Z,98.83
2024-01-10T21:06:32.188Z,103.10
2024-01-10T21:08:59.798Z,94.53
2024-01-10T21:11:27.319Z,117.30
2024-01-10T21:13:54.960Z,113.03
2024-01-10T21:16:23.725Z,106.73
2024-01-10T21:18:51.316Z,92.00
2024-01-10T21:21:18.930Z,92.27
2024-01-10T21:23:46.494Z,93.93
2024-01-10T21:26:14.034Z,90.93
2024-01-10T21:28:41.601Z,87.17
2024-01-10T21:31:10.475Z,84.80
2024-01-10T21:33:42.386Z,92.83
2024-01-10T21:36:10.092Z,81.10
2024-01-10T21:38:38.401Z,91.10
2024-01-10T21:41:06.037Z,103.60
2024-01-10T21:43:33.588Z,94.87
2024-01-10T21:46:01.312Z,88.77
2024-01-10T21:48:28.873Z,99.43
2024-01-10T21:50:56.614Z,79.50
2024-01-10T21:53:24.217Z,81.13
2024-01-10T21:55:51.784Z,77.73
2024-01-10T21:58:19.507Z,100.30
2024-01-10T22:00:46.921Z,77.53
2024-01-10T22:03:21.634Z,83.37
2024-01-10T22:05:56.397Z,89.77
2024-01-10T22:08:24.020Z,85.87
2024-01-10T22:10:51.514Z,93.07
2024-01-10T22:13:18.961Z,86.33
2024-01-10T22:15:46.449Z,85.03
2024-01-10T22:18:14.042Z,103.10
2024-01-10T22:20:41.782Z,96.77
2024-01-10T22:23:09.588Z,96.17
2024-01-10T22:25:37.109Z,97.50
2024-01-10T22:28:05.080Z,87.43
2024-01-10T22:30:37.766Z,90.07
2024-01-10T22:33:05.929Z,92.20
2024-01-10T22:35:33.476Z,83.17
2024-01-10T22:38:01.454Z,75.87
2024-01-10T22:40:29.180Z,99.20
2024-01-10T22:42:56.970Z,93.60
2024-01-10T22:45:24.529Z,80.60
2024-01-10T22:47:52.154Z,79.43
2024-01-10T22:50:20.027Z,79.97
2024-01-10T22:52:48.914Z,92.60
2024-01-10T22:55:17.180Z,86.17
2024-01-10T22:57:46.186Z,91.53
2024-01-10T23:00:15.642Z,86.33
2024-01-10T23:02:43.542Z,95.07
2024-01-10T23:05:11.365Z,95.40
2024-01-10T23:07:39.404Z,106.23
2024-01-10T23:10:07.830Z,86.50
2024-01-10T23:12:37.105Z,98.33
2024-01-10T23:15:04.892Z,90.17
2024-01-10T23:17:32.541Z,93.17
2024-01-10T23:20:00.533Z,75.63
2024-01-10T23:22:29.072Z,107.77
2024-01-10T23:24:56.545Z,93.13
2024-01-10T23:27:24.131Z,98.63
2024-01-10T23:29:51.614Z,95.43
2024-01-10T23:32:19.090Z,87.93
2024-01-10T23:34:46.645Z,87.73
2024-01-10T23:37:14.189Z,89.27
2024-01-10T23:39:41.783Z,91.60
2024-01-10T23:42:09.268Z,87.30
2024-01-10T23:44:37.692Z,97.00
2024-01-10T23:47:05.475Z,88.13
2024-01-10T23:49:33.403Z,89.70
2024-01-10T23:52:00.948Z,88.17
2024-01-10T23:54:28.462Z,92.97
2024-01-10T23:56:55.951Z,93.67
2024-01-10T23:59:23.508Z,91.60
